createdAt,value
2023-04-12T00:01:03.852Z,87.40
2023-04-12T00:03:34.763Z,87.36
2023-04-12T00:06:07.352Z,88.12
2023-04-12T00:08:39.311Z,87.91
2023-04-12T00:11:09.398Z,88.57
2023-04-12T00:13:38.712Z,89.00
2023-04-12T00:16:09.377Z,89.88
2023-04-12T00:18:38.759Z,90.34
2023-04-12T00:21:10.482Z,91.18
2023-04-12T00:23:42.356Z,92.17
2023-04-12T00:26:11.690Z,93.70
2023-04-12T00:28:40.996Z,94.10
2023-04-12T00:31:11.563Z,94.54
2023-04-12T00:33:41.690Z,95.67
2023-04-12T00:36:12.208Z,95.45
2023-04-12T00:38:45.951Z,96.45
2023-04-12T00:41:16.588Z,98.54
2023-04-12T00:43:47.414Z,99.03
2023-04-12T00:46:17.694Z,100.00
2023-04-12T00:48:48.205Z,99.88
2023-04-12T00:51:18.587Z,100.00
2023-04-12T00:53:50.575Z,100.00
2023-04-12T00:56:23.665Z,100.00
2023-04-12T00:58:53.035Z,100.00
2023-04-12T01:01:22.515Z,100.00
2023-04-12T01:03:53.790Z,100.00
2023-04-12T01:06:32.466Z,100.00
2023-04-12T01:09:13.990Z,100.00
2023-04-12T01:11:53.972Z,100.00
2023-04-12T01:14:30.381Z,100.00
2023-04-12T01:17:07.297Z,100.00
2023-04-12T01:19:53.616Z,100.00
2023-04-12T01:22:39.097Z,100.00
2023-04-12T01:25:27.393Z,100.00
2023-04-12T01:28:02.636Z,100.00
2023-04-12T01:30:34.018Z,100.00
2023-04-12T01:33:06.727Z,100.00
2023-04-12T01:35:36.976Z,100.00
2023-04-12T01:38:07.357Z,100.00
2023-04-12T01:40:40.625Z,100.00
2023-04-12T01:43:14.882Z,100.00
2023-04-12T01:45:44.589Z,100.00
2023-04-12T01:48:15.096Z,100.00
2023-04-12T01:50:53.013Z,100.00
2023-04-12T01:53:26.293Z,100.00
2023-04-12T01:56:01.327Z,100.00
2023-04-12T01:58:34.484Z,100.00
2023-04-12T02:01:05.969Z,100.00
2023-04-12T02:03:42.101Z,100.00
2023-04-12T02:06:13.105Z,100.00
2023-04-12T02:08:42.734Z,100.00
2023-04-12T02:11:12.787Z,100.00
2023-04-12T02:13:47.074Z,100.00
2023-04-12T02:16:16.973Z,100.00
2023-04-12T02:18:46.646Z,100.00
2023-04-12T02:21:16.128Z,100.00
2023-04-12T02:23:45.819Z,100.00
2023-04-12T02:26:15.610Z,100.00
2023-04-12T02:28:47.914Z,100.00
2023-04-12T02:31:18.860Z,100.00
2023-04-12T02:33:49.199Z,100.00
2023-04-12T02:36:18.574Z,100.00
2023-04-12T02:38:51.041Z,100.00
2023-04-12T02:41:20.717Z,100.00
2023-04-12T02:43:52.807Z,100.00
2023-04-12T02:46:24.802Z,100.00
2023-04-12T02:48:54.247Z,100.00
2023-04-12T02:51:23.586Z,100.00
2023-04-12T02:53:53.149Z,100.00
2023-04-12T02:56:24.832Z,100.00
2023-04-12T02:58:56.838Z,100.00
2023-04-12T03:01:26.273Z,100.00
2023-04-12T03:03:55.942Z,100.00
2023-04-12T03:06:25.624Z,100.00
2023-04-12T03:08:54.986Z,100.00
2023-04-12T03:11:24.305Z,100.00
2023-04-12T03:13:56.442Z,100.00
2023-04-12T03:16:30.212Z,100.00
2023-04-12T03:18:59.717Z,100.00
2023-04-12T03:21:29.037Z,100.00
2023-04-12T03:23:58.493Z,100.00
2023-04-12T03:26:28.025Z,100.00
2023-04-12T03:29:05.097Z,100.00
2023-04-12T03:31:35.010Z,100.00
2023-04-12T03:34:04.587Z,100.00
2023-04-12T03:36:34.059Z,100.00
2023-04-12T03:39:03.414Z,100.00
2023-04-12T03:41:32.948Z,100.00
2023-04-12T03:44:07.772Z,100.00
2023-04-12T03:46:37.427Z,100.00
2023-04-12T03:49:06.827Z,100.00
2023-04-12T03:51:36.144Z,100.00
2023-04-12T03:54:06.167Z,100.00
2023-04-12T03:56:35.762Z,100.00
2023-04-12T03:59:08.317Z,100.00
2023-04-12T04:01:38.905Z,100.00
2023-04-12T04:04:08.746Z,100.00
2023-04-12T04:06:38.887Z,100.00
2023-04-12T04:09:08.444Z,100.00
2023-04-12T04:11:38.181Z,100.00
2023-04-12T04:14:10.156Z,100.00
2023-04-12T04:16:39.508Z,100.00
2023-04-12T04:19:08.866Z,100.00
2023-04-12T04:21:40.626Z,100.00
2023-04-12T04:24:11.567Z,100.00
2023-04-12T04:26:40.861Z,100.00
2023-04-12T04:29:12.766Z,100.00
2023-04-12T04:31:42.520Z,100.00
2023-04-12T04:34:12.822Z,100.00
2023-04-12T04:36:43.790Z,100.00
2023-04-12T04:39:13.207Z,100.00
2023-04-12T04:41:42.678Z,100.00
2023-04-12T04:44:14.645Z,100.00
2023-04-12T04:46:44.047Z,100.00
2023-04-12T04:49:14.035Z,100.00
2023-04-12T04:51:43.338Z,100.00
2023-04-12T04:54:14.195Z,100.00
2023-04-12T04:56:43.654Z,100.00
2023-04-12T04:59:17.773Z,100.00
2023-04-12T05:01:47.257Z,100.00
2023-04-12T05:04:16.855Z,100.00
2023-04-12T05:06:46.480Z,100.00
2023-04-12T05:09:15.890Z,100.00
2023-04-12T05:11:45.478Z,100.00
2023-04-12T05:14:17.412Z,100.00
2023-04-12T05:16:46.748Z,100.00
2023-04-12T05:19:16.095Z,100.00
2023-04-12T05:21:45.476Z,100.00
2023-04-12T05:24:14.832Z,100.00
2023-04-12T05:26:45.378Z,100.00
2023-04-12T05:29:17.271Z,100.00
2023-04-12T05:31:46.597Z,100.00
2023-04-12T05:34:15.895Z,100.00
2023-04-12T05:36:45.458Z,100.00
2023-04-12T05:39:14.803Z,100.00
2023-04-12T05:41:44.093Z,100.00
2023-04-12T05:44:13.477Z,100.00
2023-04-12T05:46:45.530Z,100.00
2023-04-12T05:49:15.123Z,100.00
2023-04-12T05:51:44.563Z,100.00
2023-04-12T05:54:13.999Z,100.00
2023-04-12T05:56:43.337Z,100.00
2023-04-12T05:59:12.672Z,100.00
2023-04-12T06:01:42.919Z,100.00
2023-04-12T06:04:15.249Z,100.00
2023-04-12T06:06:44.715Z,100.00
2023-04-12T06:09:15.076Z,100.00
2023-04-12T06:11:44.392Z,100.00
2023-04-12T06:14:13.712Z,100.00
2023-04-12T06:16:43.173Z,100.00
2023-04-12T06:19:15.129Z,100.00
2023-04-12T06:21:44.501Z,100.00
2023-04-12T06:24:13.833Z,100.00
2023-04-12T06:26:46.828Z,100.00
2023-04-12T06:29:17.264Z,100.00
2023-04-12T06:31:46.661Z,100.00
2023-04-12T06:34:18.648Z,100.00
2023-04-12T06:36:47.961Z,100.00
2023-04-12T06:39:17.328Z,100.00
2023-04-12T06:41:47.713Z,100.00
2023-04-12T06:44:17.036Z,100.00
2023-04-12T06:46:46.668Z,100.00
2023-04-12T06:49:18.618Z,100.00
2023-04-12T06:51:48.481Z,100.00
2023-04-12T06:54:17.815Z,100.00
2023-04-12T06:56:47.158Z,100.00
2023-04-12T06:59:16.442Z,100.00
2023-04-12T07:01:45.917Z,100.00
2023-04-12T07:04:17.998Z,100.00
2023-04-12T07:06:47.579Z,100.00
2023-04-12T07:09:16.893Z,100.00
2023-04-12T07:11:46.207Z,100.00
2023-04-12T07:14:15.746Z,100.00
2023-04-12T07:16:45.899Z,100.00
2023-04-12T07:19:17.925Z,100.00
2023-04-12T07:21:47.238Z,100.00
2023-04-12T07:24:16.560Z,100.00
2023-04-12T07:26:46.173Z,100.00
2023-04-12T07:29:17.121Z,100.00
2023-04-12T07:31:46.452Z,100.00
2023-04-12T07:34:18.483Z,100.00
2023-04-12T07:36:47.897Z,100.00
2023-04-12T07:39:17.225Z,100.00
2023-04-12T07:41:48.424Z,100.00
2023-04-12T07:44:17.849Z,100.00
2023-04-12T07:46:47.711Z,100.00
2023-04-12T07:49:19.760Z,100.00
2023-04-12T07:51:49.112Z,100.00
2023-04-12T07:54:18.512Z,100.00
2023-04-12T07:57:00.710Z,100.00
2023-04-12T07:59:30.406Z,100.00
2023-04-12T08:02:00.282Z,100.00
2023-04-12T08:04:32.489Z,100.00
2023-04-12T08:07:01.840Z,100.00
2023-04-12T08:09:31.167Z,100.00
2023-04-12T08:12:01.758Z,100.00
2023-04-12T08:14:31.063Z,100.00
2023-04-12T08:17:00.636Z,99.24
2023-04-12T08:19:32.556Z,99.10
2023-04-12T08:22:01.871Z,99.73
2023-04-12T08:24:31.186Z,99.92
2023-04-12T08:27:01.780Z,97.94
2023-04-12T08:29:31.092Z,98.35
2023-04-12T08:32:01.627Z,98.79
2023-04-12T08:34:33.495Z,100.00
2023-04-12T08:37:02.845Z,100.00
2023-04-12T08:39:34.084Z,98.47
2023-04-12T08:42:05.020Z,100.00
2023-04-12T08:44:39.359Z,98.15
2023-04-12T08:47:12.189Z,98.39
2023-04-12T08:49:44.059Z,98.55
2023-04-12T08:52:13.761Z,100.00
2023-04-12T08:54:43.056Z,100.00
2023-04-12T08:57:12.785Z,100.00
2023-04-12T08:59:45.099Z,100.00
2023-04-12T09:02:17.214Z,100.00
2023-04-12T09:04:55.686Z,99.58
2023-04-12T09:07:28.273Z,100.00
2023-04-12T09:09:59.796Z,100.00
2023-04-12T09:12:29.347Z,100.00
2023-04-12T09:15:12.999Z,100.00
2023-04-12T09:17:44.048Z,99.81
2023-04-12T09:20:28.595Z,99.36
2023-04-12T09:22:58.258Z,97.95
2023-04-12T09:25:40.310Z,97.26
2023-04-12T09:28:22.611Z,96.21
2023-04-12T09:30:54.294Z,98.45
2023-04-12T09:33:25.151Z,97.34
2023-04-12T09:36:03.805Z,99.42
2023-04-12T09:38:33.267Z,98.04
2023-04-12T09:41:22.517Z,99.07
2023-04-12T09:43:55.846Z,96.56
2023-04-12T09:46:25.528Z,95.84
2023-04-12T09:48:56.311Z,94.69
2023-04-12T09:51:32.966Z,95.86
2023-04-12T09:54:04.471Z,96.67
2023-04-12T09:56:36.702Z,96.72
2023-04-12T09:59:07.743Z,93.18
2023-04-12T10:01:39.263Z,94.34
2023-04-12T10:04:10.091Z,95.13
2023-04-12T10:06:43.702Z,95.43
2023-04-12T10:09:13.186Z,96.19
2023-04-12T10:11:43.501Z,94.74
2023-04-12T10:14:14.455Z,96.82
2023-04-12T10:16:47.387Z,94.15
2023-04-12T10:19:17.616Z,93.05
2023-04-12T10:21:49.519Z,93.78
2023-04-12T10:24:19.384Z,94.53
2023-04-12T10:26:50.434Z,94.19
2023-04-12T10:29:27.986Z,93.48
2023-04-12T10:31:59.312Z,93.90
2023-04-12T10:34:32.523Z,94.42
2023-04-12T10:37:04.688Z,95.93
2023-04-12T10:39:43.008Z,94.54
2023-04-12T10:42:23.260Z,96.03
2023-04-12T10:44:53.775Z,96.00
2023-04-12T10:47:53.854Z,97.29
2023-04-12T10:50:25.273Z,96.00
2023-04-12T10:53:30.829Z,96.39
2023-04-12T10:56:00.200Z,96.02
2023-04-12T10:59:04.339Z,98.08
2023-04-12T11:01:36.678Z,100.00
2023-04-12T11:04:20.598Z,100.00
2023-04-12T11:06:53.890Z,100.00
2023-04-12T11:09:29.568Z,100.00
2023-04-12T11:12:14.537Z,100.00
2023-04-12T11:14:48.355Z,100.00
2023-04-12T11:17:25.529Z,100.00
2023-04-12T11:19:57.992Z,100.00
2023-04-12T11:22:29.234Z,100.00
2023-04-12T11:25:03.485Z,100.00
2023-04-12T11:27:34.632Z,100.00
2023-04-12T11:30:04.507Z,100.00
2023-04-12T11:32:35.385Z,100.00
2023-04-12T11:35:05.020Z,100.00
2023-04-12T11:37:35.793Z,100.00
2023-04-12T11:40:09.499Z,100.00
2023-04-12T11:42:39.244Z,100.00
2023-04-12T11:45:17.007Z,100.00
2023-04-12T11:47:49.077Z,100.00
2023-04-12T11:50:32.344Z,100.00
2023-04-12T11:53:13.450Z,100.00
2023-04-12T11:55:50.930Z,100.00
2023-04-12T11:58:20.342Z,100.00
2023-04-12T12:00:49.732Z,100.00
2023-04-12T12:03:19.989Z,100.00
2023-04-12T12:05:50.256Z,100.00
2023-04-12T12:08:21.367Z,100.00
2023-04-12T12:11:40.089Z,100.00
2023-04-12T12:13:49.785Z,100.00
2023-04-12T12:16:20.158Z,100.00
2023-04-12T12:18:52.981Z,100.00
2023-04-12T12:21:23.179Z,100.00
2023-04-12T12:23:52.996Z,100.00
2023-04-12T12:26:27.689Z,100.00
2023-04-12T12:29:00.365Z,100.00
2023-04-12T12:31:31.370Z,100.00
2023-04-12T12:34:04.333Z,100.00
2023-04-12T12:36:38.789Z,100.00
2023-04-12T12:39:11.159Z,100.00
2023-04-12T12:41:43.665Z,100.00
2023-04-12T12:44:13.937Z,100.00
2023-04-12T12:49:15.837Z,100.00
2023-04-12T12:51:45.761Z,100.00
2023-04-12T12:54:17.928Z,100.00
2023-04-12T12:56:58.829Z,100.00
2023-04-12T12:59:28.161Z,100.00
2023-04-12T13:01:57.560Z,100.00
2023-04-12T13:04:27.180Z,100.00
2023-04-12T13:06:56.552Z,100.00
2023-04-12T13:09:25.867Z,100.00
2023-04-12T13:11:57.774Z,100.00
2023-04-12T13:14:27.518Z,100.00
2023-04-12T13:16:56.937Z,100.00
2023-04-12T13:19:26.421Z,100.00
2023-04-12T13:21:55.819Z,100.00
2023-04-12T13:24:25.141Z,100.00
2023-04-12T13:26:58.250Z,100.00
2023-04-12T13:29:28.026Z,100.00
2023-04-12T13:31:57.342Z,100.00
2023-04-12T13:34:26.744Z,100.00
2023-04-12T13:36:56.096Z,100.00
2023-04-12T13:39:25.488Z,100.00
2023-04-12T13:41:57.935Z,100.00
2023-04-12T13:44:27.658Z,100.00
2023-04-12T13:46:56.993Z,100.00
2023-04-12T13:49:26.370Z,100.00
2023-04-12T13:51:55.884Z,100.00
2023-04-12T13:54:27.978Z,100.00
2023-04-12T13:57:00.301Z,100.00
2023-04-12T13:59:29.620Z,100.00
2023-04-12T14:01:58.984Z,100.00
2023-04-12T14:04:30.692Z,100.00
2023-04-12T14:07:00.921Z,100.00
2023-04-12T14:09:32.195Z,100.00
2023-04-12T14:12:04.327Z,100.00
2023-04-12T14:14:33.792Z,100.00
2023-04-12T14:17:03.416Z,100.00
2023-04-12T14:19:32.760Z,100.00
2023-04-12T14:22:02.547Z,100.00
2023-04-12T14:24:31.965Z,100.00
2023-04-12T14:27:04.620Z,100.00
2023-04-12T14:29:33.961Z,100.00
2023-04-12T14:32:03.296Z,100.00
2023-04-12T14:34:32.959Z,100.00
2023-04-12T14:37:03.034Z,100.00
2023-04-12T14:39:32.353Z,100.00
2023-04-12T14:42:04.236Z,100.00
2023-04-12T14:44:33.790Z,100.00
2023-04-12T14:47:03.153Z,100.00
2023-04-12T14:49:33.590Z,100.00
2023-04-12T14:52:03.231Z,100.00
2023-04-12T14:54:32.644Z,100.00
2023-04-12T14:57:04.553Z,100.00
2023-04-12T14:59:34.001Z,100.00
2023-04-12T15:02:03.443Z,100.00
2023-04-12T15:04:33.594Z,100.00
2023-04-12T15:07:02.985Z,100.00
2023-04-12T15:09:32.302Z,100.00
2023-04-12T15:12:04.420Z,100.00
2023-04-12T15:14:33.930Z,100.00
2023-04-12T15:17:03.240Z,100.00
2023-04-12T15:19:34.039Z,100.00
2023-04-12T15:22:03.344Z,100.00
2023-04-12T15:24:34.744Z,100.00
2023-04-12T15:27:07.957Z,100.00
2023-04-12T15:29:37.583Z,100.00
2023-04-12T15:32:08.887Z,100.00
2023-04-12T15:34:38.504Z,100.00
2023-04-12T15:37:08.007Z,100.00
2023-04-12T15:39:37.450Z,100.00
2023-04-12T15:42:09.321Z,100.00
2023-04-12T15:44:38.785Z,100.00
2023-04-12T15:47:11.396Z,100.00
2023-04-12T15:49:41.506Z,100.00
2023-04-12T15:52:10.960Z,100.00
2023-04-12T15:54:43.766Z,100.00
2023-04-12T15:57:15.867Z,100.00
2023-04-12T15:59:45.338Z,100.00
2023-04-12T16:02:14.772Z,100.00
2023-04-12T16:04:45.864Z,100.00
2023-04-12T16:07:18.611Z,100.00
2023-04-12T16:09:48.754Z,100.00
2023-04-12T16:12:20.959Z,100.00
2023-04-12T16:14:51.893Z,100.00
2023-04-12T16:17:21.799Z,100.00
2023-04-12T16:19:51.117Z,100.00
2023-04-12T16:22:20.444Z,100.00
2023-04-12T16:24:50.365Z,100.00
2023-04-12T16:27:23.691Z,100.00
2023-04-12T16:29:53.133Z,100.00
2023-04-12T16:32:22.728Z,100.00
2023-04-12T16:34:52.191Z,100.00
2023-04-12T16:37:22.051Z,100.00
2023-04-12T16:39:51.521Z,100.00
2023-04-12T16:42:24.178Z,100.00
2023-04-12T16:44:53.823Z,100.00
2023-04-12T16:47:23.270Z,100.00
2023-04-12T16:49:52.689Z,100.00
2023-04-12T16:52:22.101Z,100.00
2023-04-12T16:54:51.629Z,100.00
2023-04-12T16:57:23.741Z,100.00
2023-04-12T16:59:53.748Z,100.00
2023-04-12T17:02:24.614Z,100.00
2023-04-12T17:04:54.194Z,100.00
2023-04-12T17:07:23.512Z,100.00
2023-04-12T17:09:52.824Z,100.00
2023-04-12T17:12:24.691Z,100.00
2023-04-12T17:14:54.017Z,100.00
2023-04-12T17:17:23.375Z,100.00
2023-04-12T17:19:52.731Z,100.00
2023-04-12T17:22:22.601Z,100.00
2023-04-12T17:24:52.287Z,100.00
2023-04-12T17:27:24.833Z,100.00
2023-04-12T17:29:54.216Z,100.00
2023-04-12T17:32:23.613Z,100.00
2023-04-12T17:34:54.854Z,100.00
2023-04-12T17:37:24.396Z,100.00
2023-04-12T17:39:54.510Z,100.00
2023-04-12T17:42:26.428Z,100.00
2023-04-12T17:44:56.358Z,100.00
2023-04-12T17:47:26.025Z,100.00
2023-04-12T17:49:55.649Z,100.00
2023-04-12T17:52:24.981Z,100.00
2023-04-12T17:54:54.369Z,100.00
2023-04-12T17:57:27.690Z,100.00
2023-04-12T17:59:56.996Z,100.00
2023-04-12T18:02:26.686Z,100.00
2023-04-12T18:04:56.163Z,100.00
2023-04-12T18:07:25.657Z,100.00
2023-04-12T18:09:55.377Z,100.00
2023-04-12T18:12:27.301Z,100.00
2023-04-12T18:14:56.699Z,100.00
2023-04-12T18:17:26.753Z,100.00
2023-04-12T18:19:56.679Z,100.00
2023-04-12T18:22:25.997Z,100.00
2023-04-12T18:24:55.757Z,100.00
2023-04-12T18:27:27.756Z,100.00
2023-04-12T18:29:57.057Z,100.00
2023-04-12T18:32:26.384Z,100.00
2023-04-12T18:34:55.952Z,100.00
2023-04-12T18:37:25.298Z,100.00
2023-04-12T18:39:55.577Z,100.00
2023-04-12T18:42:27.645Z,100.00
2023-04-12T18:44:58.317Z,100.00
2023-04-12T18:47:29.318Z,100.00
2023-04-12T18:49:58.665Z,100.00
2023-04-12T18:52:28.086Z,100.00
2023-04-12T18:54:57.382Z,100.00
2023-04-12T18:57:29.275Z,100.00
2023-04-12T18:59:58.651Z,100.00
2023-04-12T19:02:28.566Z,100.00
2023-04-12T19:04:57.996Z,100.00
2023-04-12T19:07:27.415Z,100.00
2023-04-12T19:09:57.405Z,100.00
2023-04-12T19:12:29.328Z,100.00
2023-04-12T19:14:58.636Z,100.00
2023-04-12T19:17:28.288Z,100.00
2023-04-12T19:19:58.095Z,100.00
2023-04-12T19:22:28.884Z,100.00
2023-04-12T19:24:58.633Z,100.00
2023-04-12T19:27:30.620Z,100.00
2023-04-12T19:30:00.205Z,100.00
2023-04-12T19:32:30.723Z,100.00
2023-04-12T19:35:00.194Z,100.00
2023-04-12T19:37:34.078Z,100.00
2023-04-12T19:40:03.891Z,100.00
2023-04-12T19:42:35.944Z,100.00
2023-04-12T19:45:05.455Z,100.00
2023-04-12T19:47:34.905Z,100.00
2023-04-12T19:50:04.507Z,100.00
2023-04-12T19:52:34.597Z,100.00
2023-04-12T19:55:03.944Z,100.00
2023-04-12T19:57:37.276Z,100.00
2023-04-12T20:00:13.384Z,100.00
2023-04-12T20:02:42.824Z,100.00
2023-04-12T20:05:13.658Z,100.00
2023-04-12T20:07:43.749Z,100.00
2023-04-12T20:10:15.630Z,100.00
2023-04-12T20:12:48.313Z,100.00
2023-04-12T20:15:17.768Z,100.00
2023-04-12T20:17:48.607Z,100.00
2023-04-12T20:20:17.989Z,100.00
2023-04-12T20:22:52.000Z,100.00
2023-04-12T20:25:21.880Z,100.00
2023-04-12T20:27:54.288Z,100.00
2023-04-12T20:30:24.310Z,100.00
2023-04-12T20:32:54.978Z,100.00
2023-04-12T20:35:24.478Z,100.00
2023-04-12T20:37:54.388Z,100.00
2023-04-12T20:40:27.169Z,100.00
2023-04-12T20:42:59.620Z,100.00
2023-04-12T20:45:28.927Z,100.00
2023-04-12T20:47:58.295Z,100.00
2023-04-12T20:50:30.581Z,100.00
2023-04-12T20:52:59.966Z,100.00
2023-04-12T20:55:34.063Z,100.00
2023-04-12T20:58:08.162Z,100.00
2023-04-12T21:00:37.673Z,100.00
2023-04-12T21:03:08.372Z,100.00
2023-04-12T21:05:38.005Z,100.00
2023-04-12T21:08:07.594Z,100.00
2023-04-12T21:10:36.916Z,100.00
2023-04-12T21:13:08.820Z,100.00
2023-04-12T21:15:38.500Z,100.00
2023-04-12T21:18:08.183Z,100.00
2023-04-12T21:20:38.328Z,100.00
2023-04-12T21:23:08.221Z,100.00
2023-04-12T21:25:37.634Z,100.00
2023-04-12T21:28:09.580Z,100.00
2023-04-12T21:30:38.934Z,100.00
2023-04-12T21:33:08.320Z,100.00
2023-04-12T21:35:38.160Z,100.00
2023-04-12T21:38:07.701Z,100.00
2023-04-12T21:40:37.050Z,100.00
2023-04-12T21:43:08.949Z,100.00
2023-04-12T21:45:38.548Z,100.00
2023-04-12T21:48:08.306Z,100.00
2023-04-12T21:50:37.751Z,100.00
2023-04-12T21:53:07.078Z,100.00
2023-04-12T21:55:36.454Z,100.00
2023-04-12T21:58:06.254Z,100.00
2023-04-12T22:00:38.149Z,100.00
2023-04-12T22:03:07.670Z,100.00
2023-04-12T22:05:39.888Z,100.00
2023-04-12T22:08:10.991Z,100.00
2023-04-12T22:10:40.897Z,100.00
2023-04-12T22:13:11.324Z,100.00
2023-04-12T22:15:43.268Z,100.00
2023-04-12T22:18:13.191Z,100.00
2023-04-12T22:20:42.981Z,100.00
2023-04-12T22:23:13.806Z,100.00
2023-04-12T22:25:43.225Z,100.00
2023-04-12T22:28:12.671Z,100.00
2023-04-12T22:30:46.934Z,100.00
2023-04-12T22:33:16.405Z,100.00
2023-04-12T22:35:46.396Z,100.00
2023-04-12T22:38:16.440Z,100.00
2023-04-12T22:40:46.824Z,100.00
2023-04-12T22:43:18.418Z,100.00
2023-04-12T22:45:54.053Z,100.00
2023-04-12T22:48:25.210Z,100.00
2023-04-12T22:50:54.831Z,100.00
2023-04-12T22:53:25.713Z,100.00
2023-04-12T22:55:56.257Z,100.00
2023-04-12T22:58:26.236Z,100.00
2023-04-12T23:00:58.992Z,100.00
2023-04-12T23:03:28.821Z,100.00
2023-04-12T23:05:58.177Z,100.00
2023-04-12T23:08:29.283Z,100.00
2023-04-12T23:11:04.264Z,100.00
2023-04-12T23:13:36.191Z,100.00
2023-04-12T23:16:10.665Z,100.00
2023-04-12T23:18:39.982Z,100.00
2023-04-12T23:21:12.090Z,100.00
2023-04-12T23:23:41.639Z,100.00
2023-04-12T23:26:10.985Z,100.00
2023-04-12T23:28:40.560Z,100.00
2023-04-12T23:31:12.478Z,100.00
2023-04-12T23:33:43.150Z,100.00
2023-04-12T23:36:13.115Z,100.00
2023-04-12T23:38:44.451Z,100.00
2023-04-12T23:41:14.249Z,100.00
2023-04-12T23:43:43.571Z,100.00
2023-04-12T23:46:15.770Z,100.00
2023-04-12T23:48:45.137Z,100.00
2023-04-12T23:51:14.556Z,100.00
2023-04-12T23:53:45.297Z,100.00
2023-04-12T23:56:14.643Z,100.00
2023-04-12T23:58:43.970Z,100.00
